Terminal Aerodrome Forecast
Issued by NWS Sioux Falls, SD

Home | Current Version | Previous Version | Graphics & Text | Print | Product List | Glossary On
Versions: 1 2 3 4 5 6 7 8 9 10 11 12 13 14 15 16 17 18 19 20
000
FTUS43 KFSD 212057 AAA
TAFFSD
TAF AMD
KFSD 212057Z 2121/2218 23012G18KT P6SM SCT250
     FM220000 21006KT P6SM SKC
     FM221200 25005KT P6SM SCT150
     FM221600 32012KT P6SM BKN150=

USA.gov is the U.S. government's official web portal to all federal, state and local government web resources and services.